createdAt,value
2022-11-18T00:01:30.828Z,82.48
2022-11-18T00:03:59.124Z,82.50
2022-11-18T00:06:29.150Z,82.49
2022-11-18T00:08:59.079Z,82.60
2022-11-18T00:11:47.514Z,82.52
2022-11-18T00:14:21.131Z,82.55
2022-11-18T00:16:51.811Z,82.44
2022-11-18T00:19:21.152Z,82.46
2022-11-18T00:21:49.927Z,82.26
2022-11-18T00:24:18.255Z,82.17
2022-11-18T00:26:47.851Z,81.91
2022-11-18T00:29:17.234Z,81.78
2022-11-18T00:31:45.825Z,81.96
2022-11-18T00:34:16.415Z,81.96
2022-11-18T00:36:45.559Z,81.97
2022-11-18T00:39:15.776Z,82.01
2022-11-18T00:42:02.475Z,82.00
2022-11-18T00:44:32.409Z,82.15
2022-11-18T00:47:00.732Z,82.27
2022-11-18T00:49:30.179Z,82.52
2022-11-18T00:51:58.448Z,82.70
2022-11-18T00:54:26.860Z,82.86
2022-11-18T00:56:55.146Z,82.89
2022-11-18T00:59:23.424Z,82.94
2022-11-18T01:01:53.610Z,83.09
2022-11-18T01:04:21.951Z,83.12
2022-11-18T01:06:50.295Z,83.21
2022-11-18T01:09:18.780Z,83.22
2022-11-18T01:12:04.967Z,83.76
2022-11-18T01:14:33.575Z,83.32
2022-11-18T01:17:03.187Z,83.32
2022-11-18T01:19:31.489Z,83.51
2022-11-18T01:22:03.058Z,83.13
2022-11-18T01:24:32.365Z,83.26
2022-11-18T01:27:01.527Z,83.28
2022-11-18T01:29:32.014Z,83.43
2022-11-18T01:34:49.818Z,83.37
2022-11-18T01:37:18.069Z,84.16
2022-11-18T01:39:46.217Z,83.59
2022-11-18T01:42:16.579Z,83.51
2022-11-18T01:44:59.391Z,83.69
2022-11-18T01:47:32.894Z,83.76
2022-11-18T01:50:03.628Z,83.73
2022-11-18T01:52:35.081Z,83.61
2022-11-18T01:55:14.185Z,83.52
2022-11-18T01:57:45.183Z,83.75
2022-11-18T02:00:17.327Z,83.87
2022-11-18T02:02:47.009Z,84.06
2022-11-18T02:05:17.832Z,84.10
2022-11-18T02:07:50.434Z,84.13
2022-11-18T02:10:23.339Z,84.30
2022-11-18T02:12:55.092Z,84.48
2022-11-18T02:15:34.029Z,84.89
2022-11-18T02:18:09.234Z,84.81
2022-11-18T02:20:42.845Z,84.99
2022-11-18T02:23:43.383Z,84.52
2022-11-18T02:26:48.308Z,84.68
2022-11-18T02:29:20.644Z,84.89
2022-11-18T02:31:58.598Z,85.06
2022-11-18T02:34:42.206Z,84.86
2022-11-18T02:37:18.859Z,84.97
2022-11-18T02:39:54.951Z,85.04
2022-11-18T02:42:25.753Z,85.21
2022-11-18T02:45:01.370Z,85.34
2022-11-18T02:47:32.179Z,85.35
2022-11-18T02:50:05.365Z,85.26
2022-11-18T02:52:43.056Z,85.21
2022-11-18T02:55:15.237Z,85.20
2022-11-18T02:57:48.965Z,85.32
2022-11-18T03:00:19.505Z,85.35
2022-11-18T03:02:50.027Z,85.39
2022-11-18T03:05:24.209Z,85.58
2022-11-18T03:07:57.754Z,85.52
2022-11-18T03:10:33.949Z,85.56
2022-11-18T03:13:10.668Z,85.78
2022-11-18T03:15:50.190Z,85.64
2022-11-18T03:18:28.188Z,85.60
2022-11-18T03:21:02.701Z,85.58
2022-11-18T03:23:37.285Z,85.66
2022-11-18T03:26:14.321Z,85.67
2022-11-18T03:28:47.751Z,85.62
2022-11-18T03:31:25.993Z,85.63
2022-11-18T03:34:03.667Z,85.71
2022-11-18T03:36:37.419Z,85.88
2022-11-18T03:39:09.436Z,86.12
2022-11-18T03:41:46.110Z,86.35
2022-11-18T03:44:19.504Z,86.47
2022-11-18T03:46:56.649Z,86.42
2022-11-18T03:49:32.127Z,86.29
2022-11-18T03:52:07.825Z,86.12
2022-11-18T03:54:42.458Z,86.07
2022-11-18T03:57:15.303Z,85.85
2022-11-18T03:59:50.794Z,85.72
2022-11-18T04:02:22.849Z,85.89
2022-11-18T04:04:54.405Z,85.93
2022-11-18T04:07:26.141Z,86.07
2022-11-18T04:09:59.486Z,86.11
2022-11-18T04:12:32.296Z,86.31
2022-11-18T04:15:00.917Z,86.48
2022-11-18T04:17:30.854Z,86.34
2022-11-18T04:19:59.018Z,86.28
2022-11-18T04:22:29.903Z,86.21
2022-11-18T04:24:58.197Z,86.43
2022-11-18T04:27:26.417Z,86.59
2022-11-18T04:29:54.655Z,86.44
2022-11-18T04:32:22.873Z,86.28
2022-11-18T04:34:52.737Z,86.08
2022-11-18T04:37:21.516Z,85.96
2022-11-18T04:39:49.890Z,85.95
2022-11-18T04:42:18.202Z,85.82
2022-11-18T04:44:46.344Z,85.67
2022-11-18T04:47:14.657Z,85.60
2022-11-18T04:49:42.834Z,85.62
2022-11-18T04:52:12.933Z,85.76
2022-11-18T04:54:41.329Z,85.82
2022-11-18T04:57:09.489Z,85.77
2022-11-18T04:59:38.209Z,85.77
2022-11-18T05:02:06.517Z,85.86
2022-11-18T05:04:36.180Z,85.90
2022-11-18T05:07:07.839Z,85.93
2022-11-18T05:09:37.564Z,86.06
2022-11-18T05:12:23.634Z,85.92
2022-11-18T05:14:51.826Z,85.96
2022-11-18T05:17:20.274Z,86.23
2022-11-18T05:19:48.743Z,86.24
2022-11-18T05:22:17.649Z,86.32
2022-11-18T05:24:47.429Z,85.90
2022-11-18T05:27:16.327Z,85.67
2022-11-18T05:29:45.192Z,85.51
2022-11-18T05:32:13.851Z,85.37
2022-11-18T05:34:43.216Z,85.03
2022-11-18T05:37:11.836Z,84.65
2022-11-18T05:39:40.200Z,84.41
2022-11-18T05:42:28.878Z,84.31
2022-11-18T05:44:58.795Z,84.28
2022-11-18T05:47:27.796Z,84.10
2022-11-18T05:49:56.246Z,84.10
2022-11-18T05:52:24.736Z,84.06
2022-11-18T05:54:53.019Z,84.09
2022-11-18T05:57:22.599Z,84.17
2022-11-18T05:59:50.940Z,84.07
2022-11-18T06:02:25.317Z,83.91
2022-11-18T06:04:57.856Z,83.35
2022-11-18T06:07:30.544Z,82.97
2022-11-18T06:10:05.523Z,82.61
2022-11-18T06:12:41.077Z,82.25
2022-11-18T06:15:14.800Z,82.04
2022-11-18T06:17:48.102Z,81.86
2022-11-18T06:20:18.947Z,81.79
2022-11-18T06:22:48.314Z,81.68
2022-11-18T06:25:16.976Z,81.81
2022-11-18T06:27:48.620Z,81.93
2022-11-18T06:30:20.072Z,82.11
2022-11-18T06:32:51.380Z,82.39
2022-11-18T06:35:20.200Z,82.51
2022-11-18T06:37:54.028Z,82.71
2022-11-18T06:40:23.136Z,82.79
2022-11-18T06:43:10.237Z,83.03
2022-11-18T06:45:38.612Z,83.44
2022-11-18T06:48:11.243Z,83.61
2022-11-18T06:50:39.526Z,83.61
2022-11-18T06:53:07.782Z,83.49
2022-11-18T06:55:36.622Z,83.43
2022-11-18T06:58:06.289Z,83.45
2022-11-18T07:00:34.619Z,83.58
2022-11-18T07:03:03.727Z,83.62
2022-11-18T07:05:32.014Z,83.59
2022-11-18T07:08:00.452Z,83.34
2022-11-18T07:10:29.283Z,83.06
2022-11-18T07:12:57.483Z,82.85
2022-11-18T07:15:27.100Z,82.61
2022-11-18T07:17:55.306Z,82.35
2022-11-18T07:20:23.494Z,82.01
2022-11-18T07:22:53.800Z,81.78
2022-11-18T07:25:22.058Z,81.47
2022-11-18T07:27:50.227Z,81.46
2022-11-18T07:30:19.118Z,81.43
2022-11-18T07:32:48.828Z,81.14
2022-11-18T07:35:18.901Z,81.07
2022-11-18T07:37:53.564Z,80.76
2022-11-18T07:40:28.840Z,80.86
2022-11-18T07:42:57.112Z,80.83
2022-11-18T07:45:25.731Z,80.86
2022-11-18T07:47:55.358Z,81.11
2022-11-18T07:50:27.264Z,81.10
2022-11-18T07:52:56.997Z,81.16
2022-11-18T07:55:30.854Z,81.12
2022-11-18T07:58:00.435Z,81.10
2022-11-18T08:00:28.834Z,80.99
2022-11-18T08:02:58.853Z,80.98
2022-11-18T08:05:27.292Z,80.94
2022-11-18T08:07:55.595Z,81.05
2022-11-18T08:10:24.888Z,81.04
2022-11-18T08:12:53.177Z,80.84
2022-11-18T08:15:21.352Z,80.75
2022-11-18T08:17:49.690Z,80.53
2022-11-18T08:20:19.589Z,80.46
2022-11-18T08:22:47.838Z,80.36
2022-11-18T08:25:16.246Z,80.24
2022-11-18T08:27:44.714Z,80.17
2022-11-18T08:30:13.901Z,80.14
2022-11-18T08:32:42.248Z,80.04
2022-11-18T08:35:11.390Z,79.95
2022-11-18T08:37:41.330Z,79.98
2022-11-18T08:40:10.602Z,79.87
2022-11-18T08:42:39.472Z,79.65
2022-11-18T08:45:09.444Z,79.61
2022-11-18T08:47:38.592Z,79.66
2022-11-18T08:50:09.819Z,79.59
2022-11-18T08:52:38.273Z,79.64
2022-11-18T08:55:09.049Z,79.56
2022-11-18T08:57:37.266Z,79.44
2022-11-18T09:00:07.696Z,79.40
2022-11-18T09:02:37.131Z,79.39
2022-11-18T09:05:06.492Z,79.17
2022-11-18T09:07:35.170Z,79.24
2022-11-18T09:10:03.569Z,79.25
2022-11-18T09:12:33.172Z,79.24
2022-11-18T09:15:17.929Z,79.10
2022-11-18T09:17:49.045Z,79.05
2022-11-18T09:20:18.041Z,79.22
2022-11-18T09:22:46.177Z,79.30
2022-11-18T09:25:14.418Z,79.31
2022-11-18T09:27:44.055Z,79.28
2022-11-18T09:30:12.724Z,79.37
2022-11-18T09:32:40.870Z,79.40
2022-11-18T09:35:09.251Z,79.25
2022-11-18T09:37:37.891Z,79.30
2022-11-18T09:40:07.671Z,79.23
2022-11-18T09:42:49.470Z,79.23
2022-11-18T09:45:25.576Z,79.24
2022-11-18T09:47:58.593Z,79.24
2022-11-18T09:50:49.586Z,79.19
2022-11-18T09:53:20.815Z,79.08
2022-11-18T09:55:50.050Z,79.03
2022-11-18T09:58:26.168Z,79.06
2022-11-18T10:00:54.901Z,78.94
2022-11-18T10:03:28.314Z,78.80
2022-11-18T10:06:02.858Z,78.92
2022-11-18T10:08:36.707Z,78.84
2022-11-18T10:11:14.794Z,78.89
2022-11-18T10:13:55.787Z,78.93
2022-11-18T10:16:37.810Z,78.75
2022-11-18T10:19:18.035Z,78.84
2022-11-18T10:21:55.390Z,79.15
2022-11-18T10:24:28.924Z,79.42
2022-11-18T10:26:58.833Z,79.56
2022-11-18T10:29:28.779Z,79.88
2022-11-18T10:32:04.702Z,80.17
2022-11-18T10:34:33.909Z,80.90
2022-11-18T10:37:03.783Z,81.14
2022-11-18T10:39:32.273Z,80.96
2022-11-18T10:42:04.233Z,81.09
2022-11-18T10:44:36.647Z,81.41
2022-11-18T10:47:18.374Z,81.88
2022-11-18T10:49:47.391Z,82.57
2022-11-18T10:52:17.880Z,82.47
2022-11-18T10:54:46.292Z,82.64
2022-11-18T10:57:22.585Z,83.24
2022-11-18T10:59:56.364Z,83.25
2022-11-18T11:02:31.267Z,83.22
2022-11-18T11:05:02.524Z,83.31
2022-11-18T11:07:32.846Z,83.89
2022-11-18T11:10:03.350Z,83.94
2022-11-18T11:12:34.671Z,84.20
2022-11-18T11:15:06.624Z,84.30
2022-11-18T11:17:39.980Z,84.13
2022-11-18T11:20:18.044Z,84.10
2022-11-18T11:22:46.815Z,84.23
2022-11-18T11:25:17.841Z,84.07
2022-11-18T11:30:50.974Z,83.96
2022-11-18T11:33:32.598Z,84.10
2022-11-18T11:36:22.729Z,84.48
2022-11-18T11:39:11.325Z,84.50
2022-11-18T11:41:45.641Z,84.47
2022-11-18T11:44:32.642Z,84.12
2022-11-18T11:47:32.037Z,84.08
2022-11-18T11:50:03.459Z,83.55
2022-11-18T11:52:41.952Z,83.17
2022-11-18T11:55:19.955Z,83.16
2022-11-18T11:58:06.381Z,83.13
2022-11-18T12:00:41.225Z,82.60
2022-11-18T12:03:29.191Z,82.33
2022-11-18T12:05:57.378Z,82.34
2022-11-18T12:08:34.024Z,81.60
2022-11-18T12:11:12.787Z,81.99
2022-11-18T12:13:53.674Z,82.01
2022-11-18T12:16:29.325Z,82.11
2022-11-18T12:19:02.366Z,82.42
2022-11-18T12:21:56.349Z,82.45
2022-11-18T12:24:34.196Z,82.60
2022-11-18T12:27:06.951Z,82.97
2022-11-18T12:29:44.079Z,83.09
2022-11-18T12:32:31.577Z,82.74
2022-11-18T12:35:06.199Z,82.91
2022-11-18T12:37:59.486Z,83.55
2022-11-18T12:40:37.388Z,83.48
2022-11-18T12:43:24.635Z,83.97
2022-11-18T12:45:58.394Z,84.13
2022-11-18T12:48:38.508Z,84.65
2022-11-18T12:51:45.324Z,84.78
2022-11-18T12:54:41.180Z,85.50
2022-11-18T12:57:19.814Z,85.76
2022-11-18T12:59:48.660Z,85.68
2022-11-18T13:02:23.974Z,86.16
2022-11-18T13:05:10.907Z,86.39
2022-11-18T13:08:03.423Z,86.57
2022-11-18T13:10:36.149Z,86.99
2022-11-18T13:13:06.324Z,86.98
2022-11-18T13:15:51.791Z,86.92
2022-11-18T13:18:21.594Z,87.34
2022-11-18T13:20:57.556Z,87.68
2022-11-18T13:23:46.314Z,87.80
2022-11-18T13:26:22.757Z,87.99
2022-11-18T13:29:07.299Z,88.28
2022-11-18T13:31:43.859Z,88.31
2022-11-18T13:34:19.050Z,88.57
2022-11-18T13:36:49.745Z,88.10
2022-11-18T13:39:24.252Z,88.12
2022-11-18T13:42:06.484Z,88.35
2022-11-18T13:44:35.861Z,88.07
2022-11-18T13:47:09.569Z,88.09
2022-11-18T13:49:58.124Z,88.26
2022-11-18T13:52:31.086Z,87.98
2022-11-18T13:55:01.786Z,87.62
2022-11-18T13:57:31.858Z,87.59
2022-11-18T14:00:05.803Z,87.68
2022-11-18T14:02:40.984Z,87.87
2022-11-18T14:05:26.270Z,87.89
2022-11-18T14:08:07.206Z,87.75
2022-11-18T14:10:42.867Z,87.86
2022-11-18T14:13:28.638Z,87.95
2022-11-18T14:15:58.763Z,87.89
2022-11-18T14:18:33.425Z,88.18
2022-11-18T14:21:03.086Z,88.22
2022-11-18T14:23:34.405Z,88.35
2022-11-18T14:26:05.846Z,88.26
2022-11-18T14:28:37.128Z,88.43
2022-11-18T14:31:21.006Z,88.36
2022-11-18T14:34:17.281Z,88.15
2022-11-18T14:36:45.624Z,88.41
2022-11-18T14:39:26.348Z,88.67
2022-11-18T14:41:56.516Z,88.68
2022-11-18T14:44:28.309Z,88.44
2022-11-18T14:46:59.699Z,88.48
2022-11-18T14:49:30.795Z,88.53
2022-11-18T14:52:02.516Z,88.96
2022-11-18T14:54:31.782Z,89.05
2022-11-18T14:57:02.803Z,89.07
2022-11-18T14:59:33.008Z,89.20
2022-11-18T15:02:01.239Z,89.18
2022-11-18T15:04:29.714Z,89.39
2022-11-18T15:06:58.828Z,89.41
2022-11-18T15:09:30.405Z,89.34
2022-11-18T15:12:03.629Z,89.38
2022-11-18T15:14:34.907Z,89.39
2022-11-18T15:17:03.270Z,89.47
2022-11-18T15:19:32.247Z,89.54
2022-11-18T15:22:00.628Z,89.72
2022-11-18T15:24:28.838Z,89.79
2022-11-18T15:26:56.995Z,89.92
2022-11-18T15:29:26.635Z,90.08
2022-11-18T15:31:56.478Z,89.99
2022-11-18T15:34:25.119Z,90.06
2022-11-18T15:36:53.512Z,90.06
2022-11-18T15:39:22.193Z,89.95
2022-11-18T15:41:50.506Z,89.99
2022-11-18T15:44:19.173Z,90.10
2022-11-18T15:46:48.130Z,90.23
2022-11-18T15:49:18.589Z,90.23
2022-11-18T15:51:46.911Z,90.30
2022-11-18T15:54:15.179Z,90.47
2022-11-18T15:56:43.385Z,90.76
2022-11-18T15:59:13.298Z,91.24
2022-11-18T16:01:43.853Z,91.42
2022-11-18T16:04:14.460Z,91.58
2022-11-18T16:06:44.501Z,91.63
2022-11-18T16:09:18.945Z,91.84
2022-11-18T16:12:05.174Z,92.09
2022-11-18T16:14:36.954Z,92.20
2022-11-18T16:17:06.488Z,92.25
2022-11-18T16:19:34.636Z,92.11
2022-11-18T16:22:04.216Z,92.01
2022-11-18T16:24:33.547Z,92.10
2022-11-18T16:27:04.760Z,92.24
2022-11-18T16:29:33.574Z,92.27
2022-11-18T16:32:01.747Z,92.35
2022-11-18T16:34:29.917Z,92.42
2022-11-18T16:36:59.908Z,92.37
2022-11-18T16:39:30.134Z,92.40
2022-11-18T16:42:07.431Z,92.53
2022-11-18T16:44:37.345Z,92.58
2022-11-18T16:47:13.969Z,92.58
2022-11-18T16:49:42.836Z,92.61
2022-11-18T16:52:11.053Z,92.66
2022-11-18T16:54:45.214Z,92.94
2022-11-18T16:57:14.775Z,93.05
2022-11-18T16:59:43.084Z,93.01
2022-11-18T17:02:12.977Z,92.85
2022-11-18T17:04:42.110Z,92.82
2022-11-18T17:07:10.483Z,92.88
2022-11-18T17:09:40.293Z,92.99
2022-11-18T17:12:09.247Z,93.11
2022-11-18T17:14:38.614Z,93.10
2022-11-18T17:17:08.177Z,93.08
2022-11-18T17:19:37.790Z,93.06
2022-11-18T17:22:06.852Z,93.05
2022-11-18T17:24:35.064Z,93.04
2022-11-18T17:27:05.549Z,92.99
2022-11-18T17:29:34.685Z,93.00
2022-11-18T17:32:02.976Z,93.00
2022-11-18T17:34:32.268Z,93.12
2022-11-18T17:37:06.431Z,93.42
2022-11-18T17:39:35.202Z,93.57
2022-11-18T17:42:22.509Z,93.59
2022-11-18T17:44:50.734Z,93.46
2022-11-18T17:47:19.191Z,93.41
2022-11-18T17:49:47.410Z,93.43
2022-11-18T17:52:15.642Z,93.44
2022-11-18T17:54:43.761Z,93.43
2022-11-18T17:57:13.324Z,93.49
2022-11-18T17:59:41.471Z,93.49
2022-11-18T18:02:11.697Z,93.47
2022-11-18T18:04:39.940Z,93.59
2022-11-18T18:07:08.245Z,93.49
2022-11-18T18:09:37.560Z,93.56
2022-11-18T18:12:27.590Z,93.75
2022-11-18T18:14:56.184Z,93.78
2022-11-18T18:17:24.377Z,93.88
2022-11-18T18:19:52.620Z,93.86
2022-11-18T18:22:25.277Z,93.85
2022-11-18T18:24:56.226Z,93.84
2022-11-18T18:27:24.606Z,93.82
2022-11-18T18:29:52.976Z,93.78
2022-11-18T18:32:22.516Z,93.90
2022-11-18T18:34:50.665Z,94.25
2022-11-18T18:37:18.814Z,94.46
2022-11-18T18:39:46.981Z,94.53
2022-11-18T18:42:15.338Z,94.44
2022-11-18T18:45:15.744Z,94.37
2022-11-18T18:47:45.240Z,94.33
2022-11-18T18:50:13.403Z,94.66
2022-11-18T18:52:42.049Z,94.33
2022-11-18T18:55:10.788Z,94.50
2022-11-18T18:57:38.968Z,94.94
2022-11-18T19:00:10.606Z,94.69
2022-11-18T19:02:38.920Z,94.87
2022-11-18T19:05:09.310Z,94.90
2022-11-18T19:07:37.561Z,94.88
2022-11-18T19:10:07.463Z,94.91
2022-11-18T19:12:44.021Z,94.73
2022-11-18T19:15:13.815Z,94.56
2022-11-18T19:17:42.679Z,94.49
2022-11-18T19:20:31.680Z,94.50
2022-11-18T19:23:03.545Z,94.43
2022-11-18T19:25:35.529Z,94.46
2022-11-18T19:28:03.749Z,94.46
2022-11-18T19:30:33.142Z,94.36
2022-11-18T19:33:01.296Z,94.38
2022-11-18T19:35:31.129Z,94.43
2022-11-18T19:37:59.318Z,94.40
2022-11-18T19:40:27.504Z,94.41
2022-11-18T19:42:55.857Z,94.46
2022-11-18T19:45:24.102Z,94.40
2022-11-18T19:47:52.228Z,94.43
2022-11-18T19:50:20.611Z,94.52
2022-11-18T19:52:50.150Z,94.52
2022-11-18T19:55:18.436Z,94.55
2022-11-18T19:57:46.635Z,94.55
2022-11-18T20:00:16.161Z,94.63
2022-11-18T20:02:44.781Z,94.77
2022-11-18T20:05:30.269Z,94.86
2022-11-18T20:08:00.008Z,94.88
2022-11-18T20:10:28.160Z,94.91
2022-11-18T20:12:57.716Z,94.88
2022-11-18T20:15:25.984Z,94.88
2022-11-18T20:17:54.165Z,94.99
2022-11-18T20:20:22.468Z,94.98
2022-11-18T20:22:50.718Z,94.85
2022-11-18T20:25:20.436Z,94.75
2022-11-18T20:27:48.728Z,94.71
2022-11-18T20:30:17.740Z,94.57
2022-11-18T20:32:46.740Z,94.58
2022-11-18T20:35:15.476Z,94.45
2022-11-18T20:37:43.648Z,94.46
2022-11-18T20:40:12.476Z,94.72
2022-11-18T20:42:59.653Z,95.11
2022-11-18T20:45:28.007Z,94.46
2022-11-18T20:47:56.224Z,94.53
2022-11-18T20:50:24.495Z,94.66
2022-11-18T20:52:52.706Z,94.72
2022-11-18T20:55:21.377Z,94.71
2022-11-18T20:57:51.140Z,94.56
2022-11-18T21:00:19.875Z,94.43
2022-11-18T21:02:48.291Z,94.03
2022-11-18T21:05:16.534Z,93.57
2022-11-18T21:07:44.833Z,93.33
2022-11-18T21:10:13.008Z,93.23
2022-11-18T21:13:01.769Z,93.17
2022-11-18T21:15:30.480Z,93.17
2022-11-18T21:17:59.190Z,93.11
2022-11-18T21:20:44.935Z,93.01
2022-11-18T21:23:13.438Z,93.11
2022-11-18T21:25:41.641Z,93.05
2022-11-18T21:28:10.204Z,93.01
2022-11-18T21:30:40.039Z,93.04
2022-11-18T21:33:08.365Z,93.05
2022-11-18T21:35:36.645Z,93.06
2022-11-18T21:38:06.605Z,93.25
2022-11-18T21:40:34.815Z,93.38
2022-11-18T21:43:03.000Z,93.57
2022-11-18T21:45:32.688Z,93.71
2022-11-18T21:48:02.292Z,93.78
2022-11-18T21:50:30.898Z,93.73
2022-11-18T21:52:59.192Z,93.66
2022-11-18T21:55:27.427Z,93.76
2022-11-18T21:57:59.860Z,93.87
2022-11-18T22:00:31.646Z,94.04
2022-11-18T22:03:00.255Z,94.11
2022-11-18T22:05:29.777Z,94.13
2022-11-18T22:07:58.344Z,94.17
2022-11-18T22:10:26.619Z,94.24
2022-11-18T22:12:54.872Z,94.34
2022-11-18T22:15:23.098Z,94.42
2022-11-18T22:17:51.340Z,94.42
2022-11-18T22:20:20.026Z,94.49
2022-11-18T22:22:49.610Z,94.51
2022-11-18T22:25:18.003Z,94.50
2022-11-18T22:27:46.192Z,94.52
2022-11-18T22:30:14.465Z,94.52
2022-11-18T22:32:43.556Z,94.94
2022-11-18T22:35:11.831Z,94.59
2022-11-18T22:37:40.099Z,94.59
2022-11-18T22:40:11.340Z,94.67
2022-11-18T22:42:47.285Z,94.70
2022-11-18T22:45:15.840Z,94.75
2022-11-18T22:47:44.236Z,94.72
2022-11-18T22:50:12.505Z,94.77
2022-11-18T22:52:41.288Z,94.69
2022-11-18T22:55:12.004Z,94.65
2022-11-18T22:57:40.194Z,94.59
2022-11-18T23:00:10.082Z,94.64
2022-11-18T23:02:38.310Z,94.69
2022-11-18T23:05:07.941Z,94.72
2022-11-18T23:07:36.394Z,94.74
2022-11-18T23:10:05.823Z,94.79
2022-11-18T23:12:52.812Z,94.87
2022-11-18T23:15:21.077Z,94.96
2022-11-18T23:17:49.247Z,94.92
2022-11-18T23:20:18.662Z,94.94
2022-11-18T23:22:46.840Z,94.99
2022-11-18T23:25:15.076Z,94.83
2022-11-18T23:27:44.881Z,94.71
2022-11-18T23:30:14.398Z,94.62
2022-11-18T23:32:42.637Z,94.67
2022-11-18T23:35:10.815Z,94.75
2022-11-18T23:37:39.075Z,94.67
2022-11-18T23:40:08.781Z,94.63
2022-11-18T23:42:36.970Z,94.61
2022-11-18T23:45:07.621Z,94.46
2022-11-18T23:47:35.834Z,94.43
2022-11-18T23:50:04.036Z,94.27
2022-11-18T23:52:32.568Z,94.15
2022-11-18T23:55:01.532Z,93.88
2022-11-18T23:57:29.678Z,93.91
2022-11-18T23:59:57.848Z,94.33
